Time;durP1;ratioP1;P1;durP2;ratioP2;P2;SDS_P1;SDS_P2;PMS_P1;PMS_P2;Temp;Humidity;BMP_temperature;BMP_pressure;BME280_temperature;BME280_humidity;BME280_pressure;Samples;Min_cycle;Max_cycle;Signal;HPM_P1;HPM_P2
2023/08/24 00:00:47;;;;;;;9.83;4.27;;;;;;;;;;5015731;28;20430;-45
2023/08/24 00:03:13;;;;;;;8.57;4.20;;;;;;;;;;5021206;28;20283;-45
2023/08/24 00:05:38;;;;;;;14.25;4.72;;;;;;;;;;5020923;28;20298;-45
2023/08/24 00:08:07;;;;;;;7.72;4.28;;;;;;;;;;5013820;28;20462;-45
2023/08/24 00:10:33;;;;;;;10.70;5.18;;;;;;;;;;5015181;28;20033;-45
2023/08/24 00:12:58;;;;;;;7.63;4.88;;;;;;;;;;5016938;28;20037;-45
2023/08/24 00:15:26;;;;;;;8.33;4.67;;;;;;;;;;5011211;28;20037;-46
2023/08/24 00:17:51;;;;;;;6.95;4.75;;;;;;;;;;5013343;28;20031;-45
2023/08/24 00:20:17;;;;;;;6.27;4.33;;;;;;;;;;5010728;28;20021;-45
2023/08/24 00:22:42;;;;;;;6.90;4.00;;;;;;;;;;5011471;28;20511;-45
2023/08/24 00:25:08;;;;;;;8.63;4.30;;;;;;;;;;5015736;28;20638;-46
2023/08/24 00:27:34;;;;;;;7.25;3.80;;;;;;;;;;5012801;28;20026;-45
2023/08/24 00:29:59;;;;;;;11.75;4.45;;;;;;;;;;5011246;28;20068;-45
2023/08/24 00:32:24;;;;;;;7.93;3.50;;;;;;;;;;5014844;28;20034;-45
2023/08/24 00:34:50;;;;;;;9.23;3.93;;;;;;;;;;5016911;28;20083;-45
2023/08/24 00:37:15;;;;;;;7.47;3.90;;;;;;;;;;5011939;28;20030;-45
2023/08/24 00:39:41;;;;;;;4.75;3.38;;;;;;;;;;5016479;28;20353;-45
2023/08/24 00:42:06;;;;;;;8.75;3.65;;;;;;;;;;5016167;28;20099;-45
2023/08/24 00:44:32;;;;;;;6.00;3.88;;;;;;;;;;5015912;28;20029;-45
2023/08/24 00:46:58;;;;;;;7.03;2.80;;;;;;;;;;5018420;28;20030;-46
2023/08/24 00:49:23;;;;;;;5.35;3.42;;;;;;;;;;5016352;28;20905;-45
2023/08/24 00:51:49;;;;;;;7.78;3.40;;;;;;;;;;5011284;28;20704;-45
2023/08/24 00:54:15;;;;;;;10.20;3.75;;;;;;;;;;5017300;28;20383;-45
2023/08/24 00:56:40;;;;;;;5.80;2.65;;;;;;;;;;5011511;28;20017;-45
2023/08/24 00:59:05;;;;;;;7.85;3.38;;;;;;;;;;5010397;28;20108;-45
2023/08/24 01:01:31;;;;;;;7.07;3.40;;;;;;;;;;5020099;28;20017;-45
2023/08/24 01:03:56;;;;;;;5.90;2.93;;;;;;;;;;5016095;28;20797;-45
2023/08/24 01:06:22;;;;;;;5.57;3.05;;;;;;;;;;5011318;28;20335;-45
2023/08/24 01:08:47;;;;;;;4.78;2.90;;;;;;;;;;5013908;28;20100;-45
2023/08/24 01:11:38;;;;;;;7.90;3.05;;;;;;;;;;5013914;28;20038;-45
2023/08/24 01:14:07;;;;;;;10.43;3.20;;;;;;;;;;5012088;28;20051;-46
2023/08/24 01:16:33;;;;;;;8.20;1.90;;;;;;;;;;5015243;28;20018;-47
2023/08/24 01:19:02;;;;;;;5.40;2.72;;;;;;;;;;5016896;28;20010;-45
2023/08/24 01:21:28;;;;;;;4.80;2.95;;;;;;;;;;5016908;28;20395;-45
2023/08/24 01:24:00;;;;;;;7.22;2.70;;;;;;;;;;5015897;28;20040;-45
2023/08/24 01:26:26;;;;;;;8.57;2.92;;;;;;;;;;5011735;28;20102;-45
2023/08/24 01:28:52;;;;;;;3.47;1.95;;;;;;;;;;5016193;28;20511;-45
2023/08/24 01:31:17;;;;;;;5.07;3.10;;;;;;;;;;5016583;28;20676;-46
2023/08/24 01:33:43;;;;;;;5.97;2.83;;;;;;;;;;5016323;28;20034;-45
2023/08/24 01:36:09;;;;;;;5.53;2.90;;;;;;;;;;5017786;28;20280;-45
2023/08/24 01:38:35;;;;;;;8.90;3.05;;;;;;;;;;5017447;28;20018;-45
2023/08/24 01:41:17;;;;;;;4.22;3.00;;;;;;;;;;5015428;28;20098;-45
2023/08/24 01:43:44;;;;;;;16.35;6.05;;;;;;;;;;5016015;28;20496;-45
2023/08/24 01:46:11;;;;;;;61.40;20.65;;;;;;;;;;5016611;28;20021;-45
2023/08/24 01:48:37;;;;;;;8.73;3.28;;;;;;;;;;5014716;28;20029;-45
2023/08/24 01:51:02;;;;;;;51.95;23.17;;;;;;;;;;5013563;28;20038;-45
2023/08/24 01:53:29;;;;;;;3.92;3.35;;;;;;;;;;5014957;28;23455;-46
2023/08/24 01:55:55;;;;;;;5.40;2.90;;;;;;;;;;5018987;28;20025;-45
2023/08/24 01:58:20;;;;;;;4.50;3.00;;;;;;;;;;5010511;28;20040;-45
2023/08/24 02:00:45;;;;;;;7.47;3.30;;;;;;;;;;5012266;28;22197;-46
2023/08/24 02:03:10;;;;;;;6.10;3.10;;;;;;;;;;5014246;28;20018;-45
2023/08/24 02:05:36;;;;;;;6.67;2.90;;;;;;;;;;5021209;28;20083;-45
2023/08/24 02:08:01;;;;;;;5.17;3.40;;;;;;;;;;5022829;28;20056;-45
2023/08/24 02:10:26;;;;;;;6.07;3.33;;;;;;;;;;5022597;28;20033;-46
2023/08/24 02:12:51;;;;;;;7.13;2.83;;;;;;;;;;5020814;28;20280;-45
2023/08/24 02:15:17;;;;;;;4.13;2.80;;;;;;;;;;5020326;28;20029;-45
2023/08/24 02:17:42;;;;;;;7.30;3.20;;;;;;;;;;5023669;28;20014;-45
2023/08/24 02:20:14;;;;;;;5.87;2.87;;;;;;;;;;5021813;28;20029;-45
2023/08/24 02:22:39;;;;;;;7.20;3.60;;;;;;;;;;5024367;28;20502;-45
2023/08/24 02:25:05;;;;;;;6.05;3.40;;;;;;;;;;5019883;28;20061;-45
2023/08/24 02:27:31;;;;;;;6.75;2.85;;;;;;;;;;5014408;28;20060;-46
2023/08/24 02:29:56;;;;;;;5.72;2.83;;;;;;;;;;5014886;28;20025;-45
2023/08/24 02:32:21;;;;;;;4.30;3.17;;;;;;;;;;5013868;28;20518;-45
2023/08/24 02:34:46;;;;;;;5.90;2.77;;;;;;;;;;5016121;28;20288;-46
2023/08/24 02:37:12;;;;;;;6.93;3.25;;;;;;;;;;5016857;28;20579;-45
2023/08/24 02:39:37;;;;;;;7.70;2.93;;;;;;;;;;5019625;28;20523;-46
2023/08/24 02:42:02;;;;;;;6.33;3.00;;;;;;;;;;5012374;28;20033;-46
2023/08/24 02:44:27;;;;;;;5.77;2.90;;;;;;;;;;5016616;28;20036;-45
2023/08/24 02:46:53;;;;;;;7.90;3.90;;;;;;;;;;5017475;28;20322;-46
2023/08/24 02:49:19;;;;;;;7.32;2.85;;;;;;;;;;5017617;28;20306;-45
2023/08/24 02:51:44;;;;;;;7.77;3.57;;;;;;;;;;5013887;28;20033;-45
2023/08/24 02:54:09;;;;;;;6.40;3.47;;;;;;;;;;5015211;28;20764;-45
2023/08/24 02:56:34;;;;;;;7.50;3.10;;;;;;;;;;5015870;28;20075;-45
2023/08/24 02:59:00;;;;;;;8.87;3.50;;;;;;;;;;5020137;28;20272;-45
2023/08/24 03:01:26;;;;;;;6.70;3.47;;;;;;;;;;5016792;28;20280;-45
2023/08/24 03:03:51;;;;;;;9.93;3.45;;;;;;;;;;5019553;28;20033;-46
2023/08/24 03:06:17;;;;;;;4.43;3.03;;;;;;;;;;5002429;28;20025;-45
2023/08/24 03:08:42;;;;;;;6.10;3.47;;;;;;;;;;5019890;28;20033;-45
2023/08/24 03:11:07;;;;;;;5.97;3.53;;;;;;;;;;5021876;28;20322;-45
2023/08/24 03:13:35;;;;;;;8.40;3.80;;;;;;;;;;5021722;28;20280;-45
2023/08/24 03:16:04;;;;;;;6.70;2.92;;;;;;;;;;5021120;28;20425;-45
2023/08/24 03:18:29;;;;;;;9.50;2.97;;;;;;;;;;5020750;28;20060;-45
2023/08/24 03:20:55;;;;;;;6.73;3.37;;;;;;;;;;5025526;28;21006;-45
2023/08/24 03:23:20;;;;;;;6.75;4.03;;;;;;;;;;5019565;28;20076;-45
2023/08/24 03:25:45;;;;;;;8.17;4.27;;;;;;;;;;5022904;28;20087;-45
2023/08/24 03:28:11;;;;;;;6.80;2.77;;;;;;;;;;5018553;28;20029;-45
2023/08/24 03:30:37;;;;;;;5.88;3.13;;;;;;;;;;5026259;28;20280;-45
2023/08/24 03:33:03;;;;;;;5.95;2.92;;;;;;;;;;5019411;28;20032;-45
2023/08/24 03:35:29;;;;;;;6.50;2.95;;;;;;;;;;5024078;28;20063;-45
2023/08/24 03:37:55;;;;;;;8.75;3.13;;;;;;;;;;5020072;28;20483;-45
2023/08/24 03:40:20;;;;;;;9.93;4.23;;;;;;;;;;5019403;28;20079;-45
2023/08/24 03:42:45;;;;;;;7.70;3.70;;;;;;;;;;5018059;28;20367;-45
2023/08/24 03:45:10;;;;;;;3.80;2.57;;;;;;;;;;5015974;28;20025;-45
2023/08/24 03:47:36;;;;;;;7.50;3.13;;;;;;;;;;5017694;28;20280;-45
2023/08/24 03:50:01;;;;;;;8.30;3.07;;;;;;;;;;5017990;28;20081;-45
2023/08/24 03:52:27;;;;;;;6.25;3.58;;;;;;;;;;5017462;28;20607;-45
2023/08/24 03:54:52;;;;;;;12.00;4.22;;;;;;;;;;5020354;28;20025;-45
2023/08/24 03:57:17;;;;;;;9.70;5.40;;;;;;;;;;5016473;28;20029;-45
2023/08/24 03:59:42;;;;;;;8.70;4.70;;;;;;;;;;5022578;28;20996;-45
2023/08/24 04:02:08;;;;;;;8.10;3.08;;;;;;;;;;5019605;28;20018;-46
2023/08/24 04:04:33;;;;;;;5.63;2.63;;;;;;;;;;5001360;28;20124;-45
2023/08/24 04:06:59;;;;;;;5.77;2.97;;;;;;;;;;5017162;28;20190;-45
2023/08/24 04:09:24;;;;;;;7.30;2.92;;;;;;;;;;5014436;28;20848;-45
2023/08/24 04:11:49;;;;;;;7.97;3.10;;;;;;;;;;4994485;28;20132;-45
2023/08/24 04:14:14;;;;;;;5.80;2.97;;;;;;;;;;5014885;28;20044;-46
2023/08/24 04:16:41;;;;;;;2.50;1.37;;;;;;;;;;5011812;28;20017;-45
2023/08/24 04:19:07;;;;;;;4.72;3.15;;;;;;;;;;5014883;28;20487;-45
2023/08/24 04:21:32;;;;;;;6.20;3.20;;;;;;;;;;5012066;28;20029;-46
2023/08/24 04:23:57;;;;;;;6.27;2.93;;;;;;;;;;5014233;28;20065;-45
2023/08/24 04:26:22;;;;;;;6.47;2.60;;;;;;;;;;5015708;28;20037;-45
2023/08/24 04:28:48;;;;;;;3.40;1.70;;;;;;;;;;5018155;28;21322;-45
2023/08/24 04:31:13;;;;;;;7.13;2.90;;;;;;;;;;5014375;28;20053;-45
2023/08/24 04:33:38;;;;;;;10.63;3.13;;;;;;;;;;5016006;28;20059;-45
2023/08/24 04:36:04;;;;;;;5.60;2.45;;;;;;;;;;5016302;28;20287;-46
2023/08/24 04:38:29;;;;;;;106.93;55.80;;;;;;;;;;5010145;28;20029;-45
2023/08/24 04:40:55;;;;;;;7.63;3.07;;;;;;;;;;5010753;28;20030;-45
2023/08/24 04:43:21;;;;;;;9.25;3.00;;;;;;;;;;5013337;28;20022;-45
2023/08/24 04:45:47;;;;;;;4.78;2.55;;;;;;;;;;5012951;28;20021;-46
2023/08/24 04:48:12;;;;;;;3.42;1.90;;;;;;;;;;5009580;28;20038;-46
2023/08/24 04:50:38;;;;;;;5.95;3.13;;;;;;;;;;5013477;28;20036;-46
2023/08/24 04:53:03;;;;;;;5.20;3.00;;;;;;;;;;4993789;28;20033;-45
2023/08/24 04:55:28;;;;;;;7.60;3.67;;;;;;;;;;5018154;28;20056;-45
2023/08/24 04:57:53;;;;;;;5.97;3.33;;;;;;;;;;5015748;28;20307;-45
2023/08/24 05:00:19;;;;;;;7.23;3.00;;;;;;;;;;4998796;28;20033;-45
2023/08/24 05:02:44;;;;;;;7.00;2.95;;;;;;;;;;5013834;28;20144;-45
2023/08/24 05:05:16;;;;;;;8.33;3.80;;;;;;;;;;5013752;28;20030;-46
2023/08/24 05:07:41;;;;;;;5.88;2.90;;;;;;;;;;5011532;28;20110;-45
2023/08/24 05:10:07;;;;;;;69.40;26.77;;;;;;;;;;5012820;28;20064;-45
2023/08/24 05:12:35;;;;;;;7.00;2.90;;;;;;;;;;5013523;28;20786;-45
2023/08/24 05:15:00;;;;;;;78.97;42.90;;;;;;;;;;5014365;28;20053;-45
2023/08/24 05:17:27;;;;;;;7.97;3.25;;;;;;;;;;5011732;28;20101;-45
2023/08/24 05:19:56;;;;;;;7.50;3.63;;;;;;;;;;5014354;28;20022;-46
2023/08/24 05:22:21;;;;;;;7.68;3.50;;;;;;;;;;5014998;28;20406;-45
2023/08/24 05:24:46;;;;;;;6.13;3.03;;;;;;;;;;5018328;28;20021;-46
2023/08/24 05:27:12;;;;;;;6.53;2.80;;;;;;;;;;5016244;28;20454;-45
2023/08/24 05:29:37;;;;;;;6.93;2.83;;;;;;;;;;5011369;28;20029;-45
2023/08/24 05:32:02;;;;;;;9.90;3.43;;;;;;;;;;5006963;28;20034;-45
2023/08/24 05:34:28;;;;;;;6.50;2.90;;;;;;;;;;5017759;28;20029;-45
2023/08/24 05:36:53;;;;;;;4.78;2.97;;;;;;;;;;5027661;28;20700;-45
2023/08/24 05:39:18;;;;;;;7.43;3.90;;;;;;;;;;5029031;28;20029;-46
2023/08/24 05:41:43;;;;;;;4.80;2.90;;;;;;;;;;5015582;28;20291;-45
2023/08/24 05:44:09;;;;;;;7.83;3.03;;;;;;;;;;5025709;28;20033;-45
2023/08/24 05:46:34;;;;;;;12.27;3.70;;;;;;;;;;5016503;28;22125;-45
2023/08/24 05:48:59;;;;;;;4.37;2.90;;;;;;;;;;5025710;28;20402;-45
2023/08/24 05:51:25;;;;;;;5.88;3.92;;;;;;;;;;5023282;28;20061;-45
2023/08/24 05:53:55;;;;;;;12.55;3.80;;;;;;;;;;5025044;28;20392;-45
2023/08/24 05:56:20;;;;;;;8.70;3.95;;;;;;;;;;5026814;28;20029;-45
2023/08/24 05:58:46;;;;;;;6.22;3.25;;;;;;;;;;5031332;28;20029;-45
2023/08/24 06:01:11;;;;;;;24.67;6.97;;;;;;;;;;5027712;28;20038;-45
2023/08/24 06:03:36;;;;;;;6.03;3.35;;;;;;;;;;5031977;28;20661;-45
2023/08/24 06:06:03;;;;;;;5.90;3.13;;;;;;;;;;5032914;28;20032;-45
2023/08/24 06:08:28;;;;;;;6.65;3.15;;;;;;;;;;5035354;28;20030;-45
2023/08/24 06:10:54;;;;;;;6.82;3.17;;;;;;;;;;5033876;28;20459;-46
2023/08/24 06:13:19;;;;;;;7.32;2.58;;;;;;;;;;5004871;28;20364;-45
2023/08/24 06:15:44;;;;;;;5.33;2.67;;;;;;;;;;5014369;28;20026;-45
2023/08/24 06:18:10;;;;;;;5.88;3.10;;;;;;;;;;5025915;28;20101;-45
2023/08/24 06:20:35;;;;;;;10.13;2.90;;;;;;;;;;5028475;28;20024;-45
2023/08/24 06:23:00;;;;;;;7.97;3.23;;;;;;;;;;5029702;28;20299;-46
2023/08/24 06:25:25;;;;;;;5.77;2.70;;;;;;;;;;5025013;28;20353;-46
2023/08/24 06:27:51;;;;;;;4.07;2.47;;;;;;;;;;5021401;28;20311;-45
2023/08/24 06:30:16;;;;;;;4.75;3.05;;;;;;;;;;5026486;28;20291;-45
2023/08/24 06:32:41;;;;;;;6.07;3.03;;;;;;;;;;5025169;28;20025;-45
2023/08/24 06:35:07;;;;;;;13.17;3.73;;;;;;;;;;5009449;28;20030;-45
2023/08/24 06:37:32;;;;;;;8.32;2.83;;;;;;;;;;5022571;28;20488;-45
2023/08/24 06:39:57;;;;;;;4.67;2.87;;;;;;;;;;5026573;28;20035;-45
2023/08/24 06:42:23;;;;;;;6.78;2.67;;;;;;;;;;5009412;28;20035;-46
2023/08/24 06:44:51;;;;;;;3.55;1.63;;;;;;;;;;5025601;28;20025;-45
2023/08/24 06:47:16;;;;;;;4.82;2.63;;;;;;;;;;5025769;28;20054;-45
2023/08/24 06:49:42;;;;;;;7.78;2.50;;;;;;;;;;5028643;28;20026;-45
2023/08/24 06:52:08;;;;;;;4.47;2.88;;;;;;;;;;5032539;28;20021;-45
2023/08/24 06:54:33;;;;;;;12.85;3.35;;;;;;;;;;5031007;28;20361;-45
2023/08/24 06:56:58;;;;;;;6.40;2.72;;;;;;;;;;5027919;28;20137;-45
2023/08/24 06:59:24;;;;;;;7.17;3.73;;;;;;;;;;5031890;28;20736;-46
2023/08/24 07:01:49;;;;;;;7.95;3.17;;;;;;;;;;5030462;28;20033;-45
2023/08/24 07:04:14;;;;;;;5.50;2.47;;;;;;;;;;5029827;28;20055;-45
2023/08/24 07:06:41;;;;;;;4.15;2.17;;;;;;;;;;5030443;28;20032;-45
2023/08/24 07:09:07;;;;;;;3.85;2.60;;;;;;;;;;5025544;28;20029;-46
2023/08/24 07:11:32;;;;;;;4.40;2.70;;;;;;;;;;5027347;28;20057;-46
2023/08/24 07:13:58;;;;;;;11.40;2.63;;;;;;;;;;5027433;28;20429;-45
2023/08/24 07:16:23;;;;;;;4.80;2.30;;;;;;;;;;5022691;28;20034;-45
2023/08/24 07:18:48;;;;;;;3.20;2.20;;;;;;;;;;5026462;28;20716;-45
2023/08/24 07:21:14;;;;;;;4.40;2.50;;;;;;;;;;5010315;28;20288;-45
2023/08/24 07:23:39;;;;;;;5.35;2.40;;;;;;;;;;5022294;28;20045;-45
2023/08/24 07:26:05;;;;;;;6.75;2.08;;;;;;;;;;5023265;28;20029;-46
2023/08/24 07:28:30;;;;;;;6.60;2.92;;;;;;;;;;5025390;28;20029;-46
2023/08/24 07:30:55;;;;;;;4.73;2.20;;;;;;;;;;5027960;28;20053;-46
2023/08/24 07:33:21;;;;;;;12.45;4.35;;;;;;;;;;5025875;28;20030;-46
2023/08/24 07:35:47;;;;;;;8.48;0.95;;;;;;;;;;5027436;28;20480;-45
2023/08/24 07:38:12;;;;;;;4.13;1.45;;;;;;;;;;5029473;28;20043;-45
2023/08/24 07:40:37;;;;;;;4.20;1.53;;;;;;;;;;5029512;28;20029;-46
2023/08/24 07:43:03;;;;;;;538.20;292.08;;;;;;;;;;5018159;28;20280;-46
2023/08/24 07:45:29;;;;;;;560.55;305.25;;;;;;;;;;5020293;28;20117;-45
2023/08/24 07:47:54;;;;;;;510.83;277.60;;;;;;;;;;5027107;28;20112;-46
2023/08/24 07:50:20;;;;;;;484.00;260.77;;;;;;;;;;5023254;28;20029;-46
2023/08/24 07:52:45;;;;;;;7.40;2.97;;;;;;;;;;5015504;28;20111;-46
2023/08/24 07:55:11;;;;;;;4.70;2.10;;;;;;;;;;5022793;28;20018;-45
2023/08/24 07:57:37;;;;;;;4.22;2.05;;;;;;;;;;5024420;28;20063;-45
2023/08/24 08:00:03;;;;;;;7.35;1.83;;;;;;;;;;5025413;28;20096;-46
2023/08/24 08:02:29;;;;;;;3.63;2.47;;;;;;;;;;5025429;28;20083;-45
2023/08/24 08:05:00;;;;;;;4.83;2.10;;;;;;;;;;5028070;28;20032;-45
2023/08/24 08:07:26;;;;;;;3.10;1.98;;;;;;;;;;5026309;28;20276;-45
2023/08/24 08:09:51;;;;;;;5.00;2.70;;;;;;;;;;5029845;28;20380;-45
2023/08/24 08:12:17;;;;;;;6.10;2.43;;;;;;;;;;5021458;28;20026;-46
2023/08/24 08:14:42;;;;;;;18.67;7.57;;;;;;;;;;5028339;28;20052;-45
2023/08/24 08:17:07;;;;;;;238.47;125.40;;;;;;;;;;5027839;28;20049;-46
2023/08/24 08:19:35;;;;;;;621.93;344.20;;;;;;;;;;5028161;28;20029;-45
2023/08/24 08:22:00;;;;;;;659.10;364.83;;;;;;;;;;5029955;28;20268;-45
2023/08/24 08:24:26;;;;;;;676.20;372.23;;;;;;;;;;5031093;28;20526;-45
2023/08/24 08:26:51;;;;;;;457.13;247.10;;;;;;;;;;5025461;28;20360;-45
2023/08/24 08:29:17;;;;;;;614.10;334.23;;;;;;;;;;5027926;28;20080;-45
2023/08/24 08:31:42;;;;;;;270.08;142.65;;;;;;;;;;5025181;28;20021;-45
2023/08/24 08:34:07;;;;;;;612.40;335.70;;;;;;;;;;5023962;28;20392;-45
2023/08/24 08:36:32;;;;;;;205.73;110.13;;;;;;;;;;5027842;28;20272;-45
2023/08/24 08:38:58;;;;;;;696.78;383.45;;;;;;;;;;5025015;28;20029;-45
2023/08/24 08:41:26;;;;;;;712.95;392.83;;;;;;;;;;5026180;28;20578;-46
2023/08/24 08:43:52;;;;;;;3.78;0.32;;;;;;;;;;5022989;28;20030;-45
2023/08/24 08:46:17;;;;;;;3.47;0.23;;;;;;;;;;5019187;28;20022;-46
2023/08/24 08:48:44;;;;;;;4.13;0.60;;;;;;;;;;5023507;28;22363;-45
2023/08/24 08:51:10;;;;;;;3.50;0.20;;;;;;;;;;5019447;28;20029;-46
2023/08/24 08:53:36;;;;;;;3.67;0.28;;;;;;;;;;5017714;28;20017;-45
2023/08/24 08:56:04;;;;;;;4.47;0.70;;;;;;;;;;5023738;28;20033;-45
2023/08/24 08:58:31;;;;;;;4.15;0.52;;;;;;;;;;5026623;28;20025;-45
2023/08/24 09:00:59;;;;;;;7.55;2.08;;;;;;;;;;5038633;23;20044;-47
2023/08/24 09:03:25;;;;;;;4.28;2.25;;;;;;;;;;5061292;28;20109;-48
2023/08/24 09:05:51;;;;;;;8.77;2.22;;;;;;;;;;5055020;28;20032;-47
2023/08/24 09:08:17;;;;;;;4.95;2.20;;;;;;;;;;5042954;28;20032;-47
2023/08/24 09:10:42;;;;;;;6.25;2.58;;;;;;;;;;5057580;28;20024;-47
2023/08/24 09:13:07;;;;;;;2.83;1.87;;;;;;;;;;5038221;28;20536;-48
2023/08/24 09:15:34;;;;;;;3.53;2.10;;;;;;;;;;5059071;28;20370;-46
2023/08/24 09:18:00;;;;;;;6.85;2.08;;;;;;;;;;5045866;28;20025;-49
2023/08/24 09:20:28;;;;;;;7.97;2.33;;;;;;;;;;5058077;28;20085;-48
2023/08/24 09:22:56;;;;;;;7.90;2.75;;;;;;;;;;5063469;28;20013;-47
2023/08/24 09:25:22;;;;;;;4.78;2.08;;;;;;;;;;5059766;28;20028;-48
2023/08/24 09:27:55;;;;;;;4.70;2.72;;;;;;;;;;5059425;28;20028;-47
2023/08/24 09:30:21;;;;;;;3.75;2.17;;;;;;;;;;5063352;28;20025;-49
2023/08/24 09:32:46;;;;;;;5.43;2.27;;;;;;;;;;5056655;28;20033;-47
2023/08/24 09:35:11;;;;;;;6.20;2.17;;;;;;;;;;5056306;28;20482;-47
2023/08/24 09:37:37;;;;;;;4.50;1.90;;;;;;;;;;5057906;28;20329;-48
2023/08/24 09:40:09;;;;;;;4.60;2.03;;;;;;;;;;5057606;28;20478;-47
2023/08/24 09:42:39;;;;;;;4.30;2.00;;;;;;;;;;5057255;28;20017;-47
2023/08/24 09:45:04;;;;;;;4.43;2.05;;;;;;;;;;5055877;28;20041;-48
2023/08/24 09:47:30;;;;;;;5.00;2.45;;;;;;;;;;5056162;28;20909;-47
2023/08/24 09:49:56;;;;;;;7.75;2.45;;;;;;;;;;5058152;28;20093;-47
2023/08/24 09:52:22;;;;;;;7.22;2.63;;;;;;;;;;5059989;28;20021;-46
2023/08/24 09:54:48;;;;;;;6.53;2.17;;;;;;;;;;5053467;28;20458;-48
2023/08/24 09:57:14;;;;;;;7.15;2.42;;;;;;;;;;5039059;28;20036;-47
2023/08/24 09:59:43;;;;;;;5.10;1.73;;;;;;;;;;5044805;28;20081;-47
2023/08/24 10:02:14;;;;;;;6.63;2.42;;;;;;;;;;5038570;28;20077;-48
2023/08/24 10:04:41;;;;;;;;;;;;;;;;;;5058516;28;20091;-47
2023/08/24 10:07:13;;;;;;;3.20;1.80;;;;;;;;;;5060353;28;19917;-47
2023/08/24 10:09:43;;;;;;;3.20;2.15;;;;;;;;;;5054294;28;20047;-48
2023/08/24 10:12:09;;;;;;;6.95;2.40;;;;;;;;;;5061093;28;20487;-47
2023/08/24 10:14:47;;;;;;;7.53;2.22;;;;;;;;;;5060846;28;20048;-47
2023/08/24 10:17:13;;;;;;;4.97;1.90;;;;;;;;;;5061926;28;20024;-47
2023/08/24 10:19:39;;;;;;;10.80;2.20;;;;;;;;;;5061561;28;20029;-47
2023/08/24 10:22:05;;;;;;;5.03;2.45;;;;;;;;;;5063345;28;20024;-47
2023/08/24 10:24:31;;;;;;;5.90;1.90;;;;;;;;;;5058323;28;20384;-47
2023/08/24 10:26:57;;;;;;;4.03;1.90;;;;;;;;;;5060191;28;20489;-48
2023/08/24 10:29:23;;;;;;;4.45;1.80;;;;;;;;;;5060460;28;20029;-48
2023/08/24 10:31:49;;;;;;;6.97;2.28;;;;;;;;;;5063554;28;20052;-47
2023/08/24 10:34:14;;;;;;;3.70;1.88;;;;;;;;;;5062494;28;20024;-47
2023/08/24 10:36:40;;;;;;;4.53;1.73;;;;;;;;;;5042345;28;20017;-47
2023/08/24 10:39:06;;;;;;;4.22;2.33;;;;;;;;;;5057071;28;20275;-48
2023/08/24 10:41:51;;;;;;;4.32;1.90;;;;;;;;;;5059603;28;20020;-47
2023/08/24 10:44:24;;;;;;;5.03;2.60;;;;;;;;;;5064879;28;20036;-48
2023/08/24 10:47:05;;;;;;;8.82;1.95;;;;;;;;;;5054482;28;20075;-47
2023/08/24 10:49:31;;;;;;;3.90;2.13;;;;;;;;;;5061021;28;20029;-47
2023/08/24 10:51:57;;;;;;;5.90;1.92;;;;;;;;;;5047215;28;20052;-46
2023/08/24 10:54:30;;;;;;;5.87;1.50;;;;;;;;;;5064305;28;20398;-49
2023/08/24 10:56:58;;;;;;;4.47;1.88;;;;;;;;;;5052448;28;20021;-47
2023/08/24 10:59:23;;;;;;;4.05;1.65;;;;;;;;;;5064922;28;20482;-47
2023/08/24 11:01:51;;;;;;;677.53;372.02;;;;;;;;;;5061001;28;20029;-47
2023/08/24 11:04:17;;;;;;;590.33;315.58;;;;;;;;;;5058210;28;20046;-46
2023/08/24 11:06:52;;;;;;;574.90;298.15;;;;;;;;;;5057494;28;20565;-47
2023/08/24 11:09:18;;;;;;;813.83;443.83;;;;;;;;;;5058571;28;20526;-47
2023/08/24 11:11:54;;;;;;;378.88;199.45;;;;;;;;;;5059655;28;20024;-47
2023/08/24 11:14:22;;;;;;;808.15;442.90;;;;;;;;;;5055267;28;20034;-47
2023/08/24 11:16:48;;;;;;;4.30;1.63;;;;;;;;;;5059082;28;20016;-47
2023/08/24 11:19:14;;;;;;;6.63;2.13;;;;;;;;;;5060068;28;20043;-48
2023/08/24 11:21:40;;;;;;;6.65;1.80;;;;;;;;;;5059226;28;20017;-46
2023/08/24 11:24:06;;;;;;;7.20;2.20;;;;;;;;;;5060230;28;20024;-46
2023/08/24 11:26:31;;;;;;;5.15;2.35;;;;;;;;;;5056164;28;20021;-46
2023/08/24 11:28:59;;;;;;;9.82;2.05;;;;;;;;;;5064027;28;20102;-47
2023/08/24 11:31:24;;;;;;;5.38;1.63;;;;;;;;;;5061327;28;20035;-47
2023/08/24 11:33:56;;;;;;;3.90;1.53;;;;;;;;;;5063637;28;20017;-48
2023/08/24 11:36:23;;;;;;;5.63;2.08;;;;;;;;;;5057314;28;20146;-48
2023/08/24 11:38:51;;;;;;;6.40;2.00;;;;;;;;;;5044299;28;20029;-47
2023/08/24 11:41:17;;;;;;;5.35;2.10;;;;;;;;;;5063126;28;20044;-47
2023/08/24 11:43:43;;;;;;;8.80;1.40;;;;;;;;;;5058148;28;20074;-47
2023/08/24 11:46:08;;;;;;;6.00;1.80;;;;;;;;;;5057565;28;20036;-46
2023/08/24 11:48:36;;;;;;;3.37;1.60;;;;;;;;;;5061694;28;20040;-47
2023/08/24 11:51:02;;;;;;;6.03;1.63;;;;;;;;;;5059775;28;20287;-47
2023/08/24 11:53:29;;;;;;;4.28;1.60;;;;;;;;;;5063580;28;20094;-47
2023/08/24 11:55:54;;;;;;;4.60;1.60;;;;;;;;;;5058956;28;20560;-47
2023/08/24 11:58:20;;;;;;;3.93;1.67;;;;;;;;;;5060290;28;20021;-48
2023/08/24 12:00:46;;;;;;;2.38;1.65;;;;;;;;;;5063826;28;20644;-46
2023/08/24 12:03:11;;;;;;;3.40;1.60;;;;;;;;;;5059686;28;20028;-46
2023/08/24 12:05:37;;;;;;;4.88;1.30;;;;;;;;;;5058469;28;20052;-46
2023/08/24 12:08:02;;;;;;;2.53;1.60;;;;;;;;;;5060993;28;21746;-46
2023/08/24 12:10:28;;;;;;;6.15;2.35;;;;;;;;;;5059800;28;20336;-47
2023/08/24 12:13:04;;;;;;;50.40;21.42;;;;;;;;;;5060389;28;20029;-47
2023/08/24 12:15:29;;;;;;;4.40;1.48;;;;;;;;;;5054112;28;20029;-47
2023/08/24 12:17:55;;;;;;;6.37;1.70;;;;;;;;;;5064256;28;20368;-46
2023/08/24 12:20:24;;;;;;;5.70;1.70;;;;;;;;;;5065888;28;20060;-46
2023/08/24 12:22:51;;;;;;;6.35;2.28;;;;;;;;;;5053895;28;20310;-47
2023/08/24 12:25:16;;;;;;;5.90;1.70;;;;;;;;;;5060122;28;20028;-48
2023/08/24 12:27:42;;;;;;;4.93;1.77;;;;;;;;;;5058738;28;20032;-48
2023/08/24 12:30:07;;;;;;;103.00;40.73;;;;;;;;;;5058420;28;20028;-47
2023/08/24 12:33:02;;;;;;;5.53;1.42;;;;;;;;;;5059010;28;20271;-47
2023/08/24 12:35:27;;;;;;;7.07;1.73;;;;;;;;;;5035164;28;20044;-47
2023/08/24 12:37:52;;;;;;;8.38;1.92;;;;;;;;;;5051703;28;20112;-48
2023/08/24 12:40:18;;;;;;;4.63;2.17;;;;;;;;;;5060325;28;20070;-47
2023/08/24 12:42:43;;;;;;;4.37;1.97;;;;;;;;;;5062595;28;20017;-47
2023/08/24 12:45:09;;;;;;;5.03;1.50;;;;;;;;;;5061022;28;20275;-49
2023/08/24 12:47:37;;;;;;;6.18;2.40;;;;;;;;;;5060470;28;20466;-46
2023/08/24 12:50:03;;;;;;;8.27;1.63;;;;;;;;;;5046193;28;20033;-48
2023/08/24 12:52:28;;;;;;;5.25;1.70;;;;;;;;;;5059393;28;20025;-47
2023/08/24 12:54:53;;;;;;;5.25;1.75;;;;;;;;;;5060292;28;20066;-46
2023/08/24 12:57:19;;;;;;;4.33;1.27;;;;;;;;;;5061971;28;20116;-46
2023/08/24 12:59:44;;;;;;;4.13;1.70;;;;;;;;;;5055551;28;20025;-47
2023/08/24 13:02:09;;;;;;;4.25;1.80;;;;;;;;;;5058219;28;20074;-47
2023/08/24 13:04:34;;;;;;;3.53;1.70;;;;;;;;;;5060615;28;20486;-46
2023/08/24 13:07:00;;;;;;;2.47;1.40;;;;;;;;;;5061253;28;20037;-47
2023/08/24 13:09:25;;;;;;;4.60;1.50;;;;;;;;;;5063492;28;20064;-47
2023/08/24 13:11:51;;;;;;;5.68;1.67;;;;;;;;;;5056222;28;20471;-48
2023/08/24 13:14:16;;;;;;;5.33;2.17;;;;;;;;;;5064273;28;20076;-47
2023/08/24 13:16:41;;;;;;;5.97;2.30;;;;;;;;;;5058696;28;21068;-49
2023/08/24 13:19:07;;;;;;;5.10;1.70;;;;;;;;;;5051432;28;20033;-48
2023/08/24 13:21:32;;;;;;;3.85;1.70;;;;;;;;;;5054892;28;20043;-47
2023/08/24 13:23:58;;;;;;;7.73;1.80;;;;;;;;;;5057212;28;20046;-47
2023/08/24 13:26:23;;;;;;;4.32;1.83;;;;;;;;;;5051466;28;20078;-48
2023/08/24 13:28:48;;;;;;;3.50;1.43;;;;;;;;;;5058648;28;20390;-46
2023/08/24 13:31:14;;;;;;;5.53;1.70;;;;;;;;;;5061050;28;20036;-47
2023/08/24 13:33:39;;;;;;;5.10;2.15;;;;;;;;;;5060447;28;20478;-47
2023/08/24 13:36:04;;;;;;;8.87;2.60;;;;;;;;;;5059637;28;20050;-49
2023/08/24 13:38:30;;;;;;;4.05;1.83;;;;;;;;;;5062956;28;20024;-48
2023/08/24 13:40:55;;;;;;;4.15;1.60;;;;;;;;;;5060166;28;20066;-47
2023/08/24 13:43:21;;;;;;;3.45;1.50;;;;;;;;;;5061330;28;20029;-47
2023/08/24 13:45:46;;;;;;;4.40;1.30;;;;;;;;;;5053285;28;20012;-47
2023/08/24 13:48:11;;;;;;;2.63;1.57;;;;;;;;;;5058729;28;20486;-48
2023/08/24 13:50:37;;;;;;;4.20;1.37;;;;;;;;;;5057218;28;20032;-47
2023/08/24 13:53:02;;;;;;;172.57;82.90;;;;;;;;;;5060239;28;20078;-47
2023/08/24 13:55:27;;;;;;;3.95;0.93;;;;;;;;;;5056486;28;20422;-47
2023/08/24 13:57:52;;;;;;;1.73;1.10;;;;;;;;;;5068403;28;20052;-47
2023/08/24 14:00:18;;;;;;;8.77;1.77;;;;;;;;;;5062045;28;20050;-47
2023/08/24 14:02:44;;;;;;;5.38;1.67;;;;;;;;;;5065087;28;20024;-47
2023/08/24 14:05:10;;;;;;;3.45;1.50;;;;;;;;;;5062743;28;20055;-47
2023/08/24 14:07:36;;;;;;;5.47;1.58;;;;;;;;;;5063120;28;20112;-46
2023/08/24 14:10:01;;;;;;;4.47;2.13;;;;;;;;;;5061927;28;20035;-49
2023/08/24 14:12:26;;;;;;;5.57;3.65;;;;;;;;;;5065742;28;20033;-47
2023/08/24 14:14:52;;;;;;;4.17;1.70;;;;;;;;;;5062826;28;20033;-47
2023/08/24 14:17:17;;;;;;;4.43;1.53;;;;;;;;;;5064508;28;20287;-47
2023/08/24 14:19:42;;;;;;;2.97;1.90;;;;;;;;;;5065787;28;20025;-47
2023/08/24 14:22:07;;;;;;;3.07;1.93;;;;;;;;;;5061292;28;20028;-47
2023/08/24 14:24:34;;;;;;;5.93;1.95;;;;;;;;;;5066977;28;20024;-47
2023/08/24 14:27:00;;;;;;;3.97;1.88;;;;;;;;;;5060958;28;20099;-47
2023/08/24 14:29:25;;;;;;;5.10;2.08;;;;;;;;;;5065162;28;20146;-47
2023/08/24 14:34:20;;;;;;;6.70;1.70;;;;;;;;;;5052939;28;20045;-47